Saratoga, California
Current Conditions -  °F | °C
As of 5:53 PM on Friday 24 Oct 2014 (Local Time) from KSJC Reporting Station
Broken Clouds Broken Clouds  
Wind Chill: 68°   Ceiling: 25000
Heat Index: 68°   Visibility: 10mi
Dew Point: 52°   Wind: 7mph
Humidity: 56%   Direction: NA
Pressure: 29.88"   Gusts: NA
Location:  37.27°N, 122.01°W
Report Text: KSJC 250053Z VRB06KT 10SM FEW016 SCT180 BKN250 20/11 A2988 RMK AO2 SLP116 T02000111
Loading
Personal Weather Stations






























Interactive Weather Map New forecast layout! Learn more

10-Day Weather Forecast

Advertisements
Track Severe Weather on mobile